createdAt,value
2023-03-11T00:00:13.292Z,10.36
2023-03-11T00:03:17.434Z,10.35
2023-03-11T00:06:32.240Z,10.26
2023-03-11T00:09:25.464Z,10.19
2023-03-11T00:12:29.248Z,10.19
2023-03-11T00:15:42.786Z,10.13
2023-03-11T00:18:49.075Z,10.01
2023-03-11T00:21:59.588Z,9.88
2023-03-11T00:25:39.995Z,9.83
2023-03-11T00:28:48.378Z,9.80
2023-03-11T00:36:02.454Z,9.54
2023-03-11T00:39:34.675Z,9.50
2023-03-11T00:46:06.467Z,9.43
2023-03-11T00:49:11.684Z,9.63
2023-03-11T00:52:21.798Z,9.57
2023-03-11T00:56:12.583Z,9.50
2023-03-11T00:59:24.223Z,9.59
2023-03-11T01:02:27.577Z,9.63
2023-03-11T01:06:01.176Z,9.64
2023-03-11T01:13:20.037Z,9.62
2023-03-11T01:16:40.279Z,9.65
2023-03-11T01:19:50.724Z,9.72
2023-03-11T01:22:53.618Z,9.85
2023-03-11T01:26:00.775Z,9.78
2023-03-11T01:29:10.551Z,9.85
2023-03-11T01:40:15.671Z,9.81
2023-03-11T01:44:09.636Z,9.63
2023-03-11T01:51:54.146Z,9.60
2023-03-11T01:54:59.184Z,9.51
2023-03-11T01:58:50.692Z,9.36
2023-03-11T02:02:17.972Z,9.27
2023-03-11T02:05:27.249Z,9.25
2023-03-11T02:08:47.402Z,9.33
2023-03-11T02:11:59.193Z,9.26
2023-03-11T02:15:22.566Z,9.31
2023-03-11T02:18:39.714Z,9.18
2023-03-11T02:22:19.123Z,9.14
2023-03-11T02:26:52.158Z,8.99
2023-03-11T02:30:00.344Z,9.01
2023-03-11T02:40:56.248Z,8.73
2023-03-11T02:44:04.224Z,8.70
2023-03-11T02:47:08.644Z,8.66
2023-03-11T02:50:24.492Z,8.65
2023-03-11T02:57:24.308Z,8.86
2023-03-11T03:00:33.589Z,9.04
2023-03-11T03:03:22.052Z,9.11
2023-03-11T03:06:11.221Z,9.10
2023-03-11T03:08:59.652Z,9.05
2023-03-11T03:11:48.153Z,9.19
2023-03-11T03:14:36.630Z,9.08
2023-03-11T03:17:26.326Z,9.10
2023-03-11T03:20:15.846Z,9.15
2023-03-11T03:23:04.828Z,9.13
2023-03-11T03:25:53.274Z,9.00
2023-03-11T03:28:41.796Z,9.00
2023-03-11T03:31:29.482Z,9.16
2023-03-11T03:34:18.177Z,9.17
2023-03-11T03:37:06.622Z,9.17
2023-03-11T03:39:55.943Z,9.15
2023-03-11T03:42:44.419Z,9.33
2023-03-11T03:45:33.405Z,9.35
2023-03-11T03:48:21.883Z,9.34
2023-03-11T03:51:13.626Z,9.35
2023-03-11T03:54:02.075Z,9.34
2023-03-11T03:56:50.538Z,9.48
2023-03-11T03:59:39.202Z,9.45
2023-03-11T04:02:28.326Z,9.44
2023-03-11T04:05:16.841Z,9.45
2023-03-11T04:08:05.454Z,9.34
2023-03-11T04:10:58.650Z,9.39
2023-03-11T04:13:27.159Z,9.35
2023-03-11T04:15:55.656Z,9.34
2023-03-11T04:18:24.323Z,9.29
2023-03-11T04:20:51.993Z,9.25
2023-03-11T04:23:19.696Z,9.36
2023-03-11T04:25:50.892Z,9.34
2023-03-11T04:28:18.736Z,9.23
2023-03-11T04:30:47.246Z,9.09
2023-03-11T04:33:15.748Z,9.25
2023-03-11T04:35:44.336Z,9.17
2023-03-11T04:38:13.240Z,9.12
2023-03-11T04:40:41.685Z,9.02
2023-03-11T04:43:10.175Z,8.92
2023-03-11T04:45:42.671Z,8.99
2023-03-11T04:48:11.199Z,9.01
2023-03-11T04:50:39.650Z,8.88
2023-03-11T04:53:08.122Z,8.83
2023-03-11T04:55:36.669Z,8.81
2023-03-11T04:58:05.300Z,8.64
2023-03-11T05:00:33.864Z,8.61
2023-03-11T05:03:01.687Z,8.55
2023-03-11T05:05:29.338Z,8.50
2023-03-11T05:07:57.922Z,8.57
2023-03-11T05:10:26.477Z,8.57
2023-03-11T05:12:54.938Z,8.44
2023-03-11T05:15:23.415Z,8.46
2023-03-11T05:17:51.911Z,8.17
2023-03-11T05:20:20.419Z,8.24
2023-03-11T05:22:49.216Z,8.29
2023-03-11T05:25:16.922Z,8.31
2023-03-11T05:27:44.631Z,8.17
2023-03-11T05:30:13.446Z,8.26
2023-03-11T05:32:41.982Z,8.20
2023-03-11T05:35:10.672Z,7.97
2023-03-11T05:37:39.520Z,7.93
2023-03-11T05:40:12.200Z,7.84
2023-03-11T05:42:41.927Z,7.89
2023-03-11T05:45:11.474Z,7.85
2023-03-11T05:47:42.327Z,7.69
2023-03-11T05:50:13.075Z,7.65
2023-03-11T05:52:41.604Z,7.69
2023-03-11T05:55:12.521Z,7.69
2023-03-11T05:57:41.065Z,7.51
2023-03-11T06:00:12.170Z,7.52
2023-03-11T06:02:42.010Z,7.60
2023-03-11T06:05:13.396Z,7.58
2023-03-11T06:07:42.270Z,7.41
2023-03-11T06:10:12.057Z,7.41
2023-03-11T06:12:40.958Z,7.49
2023-03-11T06:15:10.024Z,7.44
2023-03-11T06:17:38.483Z,7.30
2023-03-11T06:20:08.223Z,7.26
2023-03-11T06:22:39.034Z,7.38
2023-03-11T06:25:09.279Z,7.54
2023-03-11T06:27:38.282Z,7.70
2023-03-11T06:30:08.136Z,7.33
2023-03-11T06:32:37.362Z,7.37
2023-03-11T06:35:06.543Z,7.08
2023-03-11T06:37:37.596Z,7.04
2023-03-11T06:40:09.643Z,7.08
2023-03-11T06:42:38.151Z,6.93
2023-03-11T06:45:07.959Z,7.12
2023-03-11T06:47:36.454Z,7.36
2023-03-11T06:50:06.813Z,7.86
2023-03-11T06:52:38.497Z,7.19
2023-03-11T06:55:08.025Z,7.13
2023-03-11T06:57:36.543Z,6.85
2023-03-11T07:00:12.381Z,7.33
2023-03-11T07:02:40.090Z,7.06
2023-03-11T07:05:08.310Z,7.55
2023-03-11T07:07:36.786Z,7.13
2023-03-11T07:10:07.214Z,7.66
2023-03-11T07:12:35.796Z,-146.39
2023-03-11T07:15:04.957Z,-146.39
2023-03-11T07:17:33.432Z,-146.39
2023-03-11T07:20:01.949Z,-146.39
2023-03-11T07:22:31.330Z,-146.39
2023-03-11T07:24:59.842Z,-146.39
2023-03-11T07:27:29.157Z,-146.39
2023-03-11T07:29:57.626Z,-146.39
2023-03-11T07:32:26.235Z,-146.39
2023-03-11T07:34:54.990Z,-146.39
2023-03-11T07:37:23.526Z,-146.39
2023-03-11T07:39:51.314Z,-146.39
2023-03-11T07:42:19.844Z,-146.39
2023-03-11T07:44:50.949Z,7.70
2023-03-11T07:47:18.642Z,7.30
2023-03-11T07:49:47.345Z,7.60
2023-03-11T07:52:15.812Z,7.89
2023-03-11T07:54:45.463Z,7.40
2023-03-11T07:57:17.157Z,7.46
2023-03-11T07:59:45.626Z,7.32
2023-03-11T08:02:14.133Z,7.33
2023-03-11T08:04:42.774Z,7.29
2023-03-11T08:07:11.279Z,7.41
2023-03-11T08:09:39.047Z,7.02
2023-03-11T08:12:08.359Z,7.25
2023-03-11T08:14:36.964Z,7.20
2023-03-11T08:17:06.217Z,7.14
2023-03-11T08:19:34.669Z,7.14
2023-03-11T08:22:04.647Z,6.79
2023-03-11T08:24:32.325Z,6.58
2023-03-11T08:27:01.072Z,6.78
2023-03-11T08:29:29.581Z,6.98
2023-03-11T08:31:58.280Z,6.60
2023-03-11T08:34:27.760Z,6.79
2023-03-11T08:36:56.674Z,6.75
2023-03-11T08:39:25.162Z,6.93
2023-03-11T08:41:53.781Z,7.15
2023-03-11T08:44:22.331Z,7.10
2023-03-11T08:46:50.867Z,7.86
2023-03-11T08:49:19.347Z,8.23
2023-03-11T08:51:47.123Z,8.55
2023-03-11T08:54:15.666Z,7.53
2023-03-11T08:56:44.252Z,7.63
2023-03-11T08:59:14.935Z,7.84
2023-03-11T09:01:42.824Z,8.35
2023-03-11T09:04:12.189Z,7.69
2023-03-11T09:06:44.759Z,8.15
2023-03-11T09:09:13.255Z,7.82
2023-03-11T09:11:42.125Z,7.87
2023-03-11T09:14:10.583Z,8.34
2023-03-11T09:16:39.075Z,7.77
2023-03-11T09:19:07.748Z,7.70
2023-03-11T09:21:37.732Z,7.67
2023-03-11T09:24:07.317Z,7.78
2023-03-11T09:26:36.755Z,8.40
2023-03-11T09:29:05.282Z,8.67
2023-03-11T09:31:33.752Z,9.07
2023-03-11T09:34:02.272Z,8.94
2023-03-11T09:36:30.862Z,7.75
2023-03-11T09:39:00.652Z,7.76
2023-03-11T09:41:58.806Z,7.76
2023-03-11T09:45:23.548Z,-146.39
2023-03-11T09:48:03.533Z,8.08
2023-03-11T09:51:12.905Z,7.62
2023-03-11T09:53:47.290Z,7.35
2023-03-11T09:56:21.187Z,8.25
2023-03-11T09:59:04.285Z,7.92
2023-03-11T10:01:49.964Z,8.04
2023-03-11T10:04:35.685Z,8.17
2023-03-11T10:07:21.757Z,8.12
2023-03-11T10:09:59.036Z,8.57
2023-03-11T10:13:09.728Z,8.39
2023-03-11T10:16:20.143Z,9.06
2023-03-11T10:19:08.882Z,9.40
2023-03-11T10:21:51.773Z,8.79
2023-03-11T10:24:51.637Z,9.44
2023-03-11T10:27:35.061Z,9.15
2023-03-11T10:30:45.723Z,8.46
2023-03-11T10:33:47.862Z,9.09
2023-03-11T10:36:26.604Z,9.07
2023-03-11T10:38:59.764Z,8.91
2023-03-11T10:41:44.415Z,8.06
2023-03-11T10:44:26.410Z,7.63
2023-03-11T10:46:54.067Z,7.19
2023-03-11T10:49:22.544Z,7.17
2023-03-11T10:51:54.770Z,7.10
2023-03-11T10:54:41.207Z,7.10
2023-03-11T10:57:41.581Z,-146.39
2023-03-11T11:00:28.708Z,6.79
2023-03-11T11:02:58.430Z,-146.39
2023-03-11T11:05:35.905Z,6.62
2023-03-11T11:08:16.027Z,-146.39
2023-03-11T11:11:01.717Z,6.60
2023-03-11T11:13:34.837Z,6.38
2023-03-11T11:16:16.391Z,6.45
2023-03-11T11:18:51.297Z,6.38
2023-03-11T11:21:40.607Z,6.41
2023-03-11T11:24:28.928Z,6.27
2023-03-11T11:27:04.649Z,6.43
2023-03-11T11:29:34.889Z,6.30
2023-03-11T11:32:26.439Z,6.62
2023-03-11T11:35:20.086Z,6.61
2023-03-11T11:38:00.514Z,6.76
2023-03-11T11:40:34.899Z,6.65
2023-03-11T11:43:18.044Z,6.83
2023-03-11T11:46:07.908Z,7.53
2023-03-11T11:49:22.312Z,7.57
2023-03-11T11:52:14.609Z,7.74
2023-03-11T11:55:15.360Z,7.78
2023-03-11T11:57:43.006Z,7.62
2023-03-11T12:00:38.224Z,8.02
2023-03-11T12:03:46.878Z,7.93
2023-03-11T12:07:04.573Z,7.73
2023-03-11T12:10:23.214Z,7.35
2023-03-11T12:13:48.952Z,7.31
2023-03-11T12:17:01.907Z,7.51
2023-03-11T12:19:52.608Z,7.34
2023-03-11T12:23:00.136Z,7.52
2023-03-11T12:26:07.098Z,7.46
2023-03-11T12:28:56.725Z,7.17
2023-03-11T12:31:29.445Z,7.30
2023-03-11T12:34:03.543Z,7.40
2023-03-11T12:36:40.515Z,7.60
2023-03-11T12:39:33.840Z,8.03
2023-03-11T12:42:11.505Z,7.97
2023-03-11T12:44:41.182Z,8.12
2023-03-11T12:47:12.444Z,8.44
2023-03-11T12:49:56.035Z,8.40
2023-03-11T12:52:29.163Z,8.66
2023-03-11T12:55:01.296Z,8.00
2023-03-11T12:57:51.192Z,8.11
2023-03-11T13:00:44.575Z,8.07
2023-03-11T13:04:26.905Z,8.39
2023-03-11T13:07:37.922Z,8.96
2023-03-11T13:10:54.033Z,8.40
2023-03-11T13:13:43.014Z,8.03
2023-03-11T13:16:37.338Z,7.98
2023-03-11T13:19:26.952Z,7.82
2023-03-11T13:21:59.841Z,7.54
2023-03-11T13:24:29.682Z,7.78
2023-03-11T13:27:03.346Z,7.69
2023-03-11T13:30:04.435Z,7.83
2023-03-11T13:33:17.425Z,7.03
2023-03-11T13:36:17.869Z,7.06
2023-03-11T13:39:29.053Z,7.21
2023-03-11T13:41:57.695Z,7.58
2023-03-11T13:44:40.940Z,7.89
2023-03-11T13:47:16.771Z,7.53
2023-03-11T13:50:10.728Z,7.31
2023-03-11T13:53:00.866Z,7.41
2023-03-11T13:55:43.346Z,7.47
2023-03-11T13:58:23.617Z,7.19
2023-03-11T14:01:01.423Z,7.48
2023-03-11T14:03:41.768Z,7.23
2023-03-11T14:06:19.763Z,7.02
2023-03-11T14:08:58.734Z,7.19
2023-03-11T14:11:29.734Z,7.24
2023-03-11T14:13:57.688Z,7.34
2023-03-11T14:16:43.884Z,7.11
2023-03-11T14:19:19.127Z,6.62
2023-03-11T14:21:51.675Z,6.69
2023-03-11T14:24:29.844Z,7.01
2023-03-11T14:27:05.137Z,6.89
2023-03-11T14:29:45.434Z,6.88
2023-03-11T14:32:35.301Z,6.96
2023-03-11T14:35:20.648Z,6.84
2023-03-11T14:37:49.217Z,6.77
2023-03-11T14:40:39.559Z,6.48
2023-03-11T14:43:11.215Z,6.16
2023-03-11T14:45:43.200Z,6.43
2023-03-11T14:48:30.864Z,6.34
2023-03-11T14:51:04.569Z,6.49
2023-03-11T14:54:03.067Z,6.57
2023-03-11T14:56:37.462Z,6.52
2023-03-11T14:59:26.913Z,6.48
2023-03-11T15:02:19.266Z,6.59
2023-03-11T15:04:48.217Z,6.68
2023-03-11T15:07:18.926Z,6.64
2023-03-11T15:09:48.485Z,6.51
2023-03-11T15:12:43.189Z,6.52
2023-03-11T15:15:30.387Z,6.49
2023-03-11T15:18:00.686Z,6.34
2023-03-11T15:20:36.363Z,6.22
2023-03-11T15:23:07.806Z,6.07
2023-03-11T15:25:40.871Z,6.14
2023-03-11T15:28:44.861Z,5.99
2023-03-11T15:31:36.673Z,5.97
2023-03-11T15:34:18.271Z,5.98
2023-03-11T15:36:49.788Z,5.82
2023-03-11T15:39:43.960Z,5.82
2023-03-11T15:42:21.055Z,5.78
2023-03-11T15:45:02.508Z,5.77
2023-03-11T15:47:30.583Z,5.52
2023-03-11T15:50:02.462Z,5.42
2023-03-11T15:52:30.123Z,5.47
2023-03-11T15:54:58.619Z,5.46
2023-03-11T15:57:30.455Z,5.38
2023-03-11T16:00:00.897Z,5.26
2023-03-11T16:02:32.129Z,5.29
2023-03-11T16:05:00.937Z,5.32
2023-03-11T16:07:39.008Z,5.27
2023-03-11T16:10:10.334Z,5.25
2023-03-11T16:12:39.231Z,5.21
2023-03-11T16:15:31.478Z,5.16
2023-03-11T16:18:03.981Z,5.19
2023-03-11T16:20:45.243Z,5.21
2023-03-11T16:23:25.900Z,5.21
2023-03-11T16:26:05.693Z,5.18
2023-03-11T16:28:33.312Z,5.20
2023-03-11T16:31:01.036Z,5.20
2023-03-11T16:33:28.758Z,5.19
2023-03-11T16:35:57.512Z,5.14
2023-03-11T16:38:25.158Z,5.09
2023-03-11T16:41:01.274Z,5.07
2023-03-11T16:43:30.643Z,5.07
2023-03-11T16:45:58.369Z,4.97
2023-03-11T16:48:26.338Z,5.07
2023-03-11T16:50:54.212Z,4.95
2023-03-11T16:53:26.335Z,4.77
2023-03-11T16:55:54.511Z,4.89
2023-03-11T16:58:22.956Z,4.81
2023-03-11T17:00:50.698Z,4.76
2023-03-11T17:03:21.827Z,4.86
2023-03-11T17:05:51.086Z,4.70
2023-03-11T17:08:18.979Z,4.72
2023-03-11T17:10:47.674Z,4.75
2023-03-11T17:13:18.911Z,4.78
2023-03-11T17:16:02.243Z,4.70
2023-03-11T17:18:30.945Z,4.82
2023-03-11T17:21:02.200Z,4.77
2023-03-11T17:23:30.793Z,4.82
2023-03-11T17:26:01.515Z,4.84
2023-03-11T17:28:30.241Z,4.88
2023-03-11T17:31:00.271Z,4.79
2023-03-11T17:33:29.443Z,4.74
2023-03-11T17:36:09.641Z,4.80
2023-03-11T17:38:37.310Z,4.82
2023-03-11T17:41:12.897Z,4.72
2023-03-11T17:43:43.187Z,4.80
2023-03-11T17:46:18.754Z,4.65
2023-03-11T17:48:50.240Z,4.70
2023-03-11T17:51:22.862Z,4.66
2023-03-11T17:53:52.985Z,4.72
2023-03-11T17:56:22.373Z,4.59
2023-03-11T17:58:51.811Z,4.61
2023-03-11T18:01:24.367Z,4.66
2023-03-11T18:03:53.015Z,4.55
2023-03-11T18:06:22.302Z,4.66
2023-03-11T18:08:51.209Z,4.65
2023-03-11T18:11:26.467Z,4.65
2023-03-11T18:13:55.420Z,4.76
2023-03-11T18:16:28.886Z,4.76
2023-03-11T18:18:59.901Z,4.58
2023-03-11T18:21:30.480Z,4.70
2023-03-11T18:24:01.483Z,4.73
2023-03-11T18:26:31.190Z,4.69
2023-03-11T18:29:01.061Z,4.66
2023-03-11T18:31:31.429Z,4.84
2023-03-11T18:34:04.166Z,4.74
2023-03-11T18:36:39.363Z,4.82
2023-03-11T18:39:13.797Z,4.62
2023-03-11T18:41:44.246Z,4.54
2023-03-11T18:44:12.202Z,4.64
2023-03-11T18:46:42.507Z,4.69
2023-03-11T18:49:14.417Z,4.67
2023-03-11T18:51:44.889Z,4.59
2023-03-11T18:54:13.409Z,4.55
2023-03-11T18:56:43.046Z,4.69
2023-03-11T18:59:12.313Z,4.56
2023-03-11T19:01:40.057Z,4.67
2023-03-11T19:04:07.750Z,4.50
2023-03-11T19:06:38.993Z,4.54
2023-03-11T19:09:07.530Z,4.44
2023-03-11T19:11:35.229Z,4.46
2023-03-11T19:14:05.156Z,4.45
2023-03-11T19:16:32.962Z,4.37
2023-03-11T19:19:01.405Z,4.37
2023-03-11T19:21:29.308Z,4.10
2023-03-11T19:23:58.220Z,4.17
2023-03-11T19:26:43.073Z,4.12
2023-03-11T19:29:15.285Z,4.03
2023-03-11T19:31:44.165Z,3.92
2023-03-11T19:34:12.249Z,4.02
2023-03-11T19:36:40.852Z,3.80
2023-03-11T19:39:08.873Z,3.93
2023-03-11T19:41:37.367Z,3.92
2023-03-11T19:44:05.161Z,3.87
2023-03-11T19:46:36.460Z,3.86
2023-03-11T19:49:04.946Z,3.62
2023-03-11T19:51:48.589Z,3.64
2023-03-11T19:54:19.486Z,3.70
2023-03-11T19:56:48.472Z,3.53
2023-03-11T19:59:16.393Z,3.55
2023-03-11T20:01:45.284Z,3.59
2023-03-11T20:04:15.349Z,3.58
2023-03-11T20:06:44.055Z,3.41
2023-03-11T20:09:13.565Z,3.48
2023-03-11T20:11:45.851Z,3.48
2023-03-11T20:14:14.862Z,3.40
2023-03-11T20:16:42.937Z,3.35
2023-03-11T20:19:10.997Z,3.51
2023-03-11T20:21:45.295Z,3.52
2023-03-11T20:24:14.608Z,3.48
2023-03-11T20:26:43.302Z,3.53
2023-03-11T20:29:11.856Z,3.50
2023-03-11T20:31:40.578Z,3.50
2023-03-11T20:34:09.125Z,3.53
2023-03-11T20:36:37.225Z,3.54
2023-03-11T20:39:10.105Z,3.43
2023-03-11T20:41:41.018Z,3.37
2023-03-11T20:44:13.824Z,3.38
2023-03-11T20:46:43.502Z,3.40
2023-03-11T20:49:12.570Z,3.30
2023-03-11T20:51:41.752Z,3.21
2023-03-11T20:54:12.260Z,3.21
2023-03-11T20:56:40.541Z,3.19
2023-03-11T20:59:08.547Z,3.17
2023-03-11T21:01:36.439Z,3.15
2023-03-11T21:04:05.047Z,3.09
2023-03-11T21:06:37.649Z,3.16
2023-03-11T21:09:16.438Z,3.04
2023-03-11T21:11:44.161Z,3.07
2023-03-11T21:14:16.876Z,2.91
2023-03-11T21:16:46.042Z,2.97
2023-03-11T21:19:14.903Z,2.89
2023-03-11T21:21:43.248Z,2.84
2023-03-11T21:24:12.556Z,2.76
2023-03-11T21:26:42.526Z,2.79
2023-03-11T21:29:11.209Z,2.80
2023-03-11T21:31:40.903Z,2.71
2023-03-11T21:34:12.075Z,2.70
2023-03-11T21:36:39.981Z,2.54
2023-03-11T21:39:09.827Z,2.59
2023-03-11T21:41:40.132Z,2.53
2023-03-11T21:44:08.825Z,2.62
2023-03-11T21:46:38.559Z,2.66
2023-03-11T21:49:08.255Z,2.48
2023-03-11T21:51:39.652Z,2.46
2023-03-11T21:54:07.350Z,2.30
2023-03-11T21:56:35.971Z,2.27
2023-03-11T21:59:06.698Z,2.24
2023-03-11T22:01:35.360Z,2.18
2023-03-11T22:04:04.470Z,2.18
2023-03-11T22:06:33.616Z,2.15
2023-03-11T22:09:02.673Z,2.14
2023-03-11T22:11:31.524Z,2.10
2023-03-11T22:14:01.159Z,2.13
2023-03-11T22:16:29.351Z,2.08
2023-03-11T22:18:58.175Z,2.05
2023-03-11T22:21:25.932Z,2.05
2023-03-11T22:23:55.476Z,2.03
2023-03-11T22:26:23.144Z,2.05
2023-03-11T22:28:51.673Z,2.03
2023-03-11T22:31:21.351Z,2.06
2023-03-11T22:33:50.032Z,2.12
2023-03-11T22:36:18.613Z,2.18
2023-03-11T22:38:47.308Z,2.14
2023-03-11T22:41:19.344Z,2.06
2023-03-11T22:43:47.995Z,2.14
2023-03-11T22:46:15.870Z,2.10
2023-03-11T22:48:44.498Z,2.11
2023-03-11T22:51:15.110Z,2.25
2023-03-11T22:53:45.163Z,2.06
2023-03-11T22:56:16.681Z,2.11
2023-03-11T22:58:46.640Z,1.96
2023-03-11T23:01:16.552Z,2.13
2023-03-11T23:03:46.708Z,2.13
2023-03-11T23:06:19.660Z,2.10
2023-03-11T23:08:49.474Z,2.08
2023-03-11T23:11:22.373Z,1.94
2023-03-11T23:13:51.580Z,1.94
2023-03-11T23:16:26.384Z,1.90
2023-03-11T23:18:56.892Z,1.72
2023-03-11T23:21:31.871Z,1.85
2023-03-11T23:24:02.230Z,1.86
2023-03-11T23:26:31.334Z,1.71
2023-03-11T23:29:01.060Z,1.75
2023-03-11T23:31:30.432Z,1.76
2023-03-11T23:34:00.141Z,1.63
2023-03-11T23:36:30.441Z,1.69
2023-03-11T23:38:58.867Z,1.58
2023-03-11T23:41:28.014Z,1.62
2023-03-11T23:43:56.611Z,1.64
2023-03-11T23:46:27.292Z,1.53
2023-03-11T23:48:55.886Z,1.57
2023-03-11T23:51:24.524Z,1.61
2023-03-11T23:53:53.029Z,1.69
2023-03-11T23:56:21.583Z,1.68
2023-03-11T23:58:49.335Z,1.71
